Terminal Aerodrome Forecast
Issued by NWS Des Moines, IA

Home | Current Version | Previous Version | Text Only | Print | Product List | Glossary On
Versions: 1 2 3 4 5 6 7 8 9 10 11 12 13 14 15 16 17 18 19 20 21 22 23 24 25 26 27
000
FTUS43 KDMX 122341
TAFALO
TAF
KALO 122341Z 1300/1324 21006KT P6SM BKN050
     FM130200 19005KT P6SM BKN060
     FM131300 24009KT P6SM BKN150
     FM131600 29015G23KT P6SM -RASN OVC024
     FM131700 30017G27KT P6SM VCSH OVC030
     FM131800 32023G35KT P6SM BKN028=

USA.gov is the U.S. government's official web portal to all federal, state and local government web resources and services.